createdAt,value
2018-02-21T00:02:02.983Z,47.50
2018-02-21T00:04:29.025Z,42.37
2018-02-21T00:06:55.109Z,41.97
2018-02-21T00:09:21.167Z,42.93
2018-02-21T00:11:47.206Z,41.77
2018-02-21T00:14:13.267Z,39.80
2018-02-21T00:16:39.370Z,40.90
2018-02-21T00:19:05.611Z,39.67
2018-02-21T00:21:31.665Z,41.90
2018-02-21T00:23:57.701Z,40.87
2018-02-21T00:26:23.803Z,41.47
2018-02-21T00:28:49.838Z,42.67
2018-02-21T00:31:15.838Z,42.37
2018-02-21T00:33:41.855Z,43.20
2018-02-21T00:36:07.895Z,42.13
2018-02-21T00:38:33.981Z,48.40
2018-02-21T00:41:00.042Z,45.00
2018-02-21T00:43:26.069Z,45.93
2018-02-21T00:45:52.685Z,45.23
2018-02-21T00:48:19.616Z,45.13
2018-02-21T00:50:45.995Z,43.20
2018-02-21T00:53:12.020Z,47.30
2018-02-21T00:55:38.058Z,45.60
2018-02-21T00:58:04.094Z,47.80
2018-02-21T01:00:30.429Z,46.03
2018-02-21T01:02:56.546Z,44.50
2018-02-21T01:05:22.550Z,43.80
2018-02-21T01:07:48.562Z,43.00
2018-02-21T01:10:14.630Z,46.90
2018-02-21T01:12:40.695Z,44.47
2018-02-21T01:15:06.705Z,42.67
2018-02-21T01:17:32.718Z,44.10
2018-02-21T01:19:58.790Z,45.83
2018-02-21T01:22:24.815Z,44.90
2018-02-21T01:24:50.851Z,45.07
2018-02-21T01:27:16.880Z,45.50
2018-02-21T01:29:42.916Z,49.03
2018-02-21T01:32:08.938Z,44.50
2018-02-21T01:34:34.920Z,46.90
2018-02-21T01:37:01.024Z,44.37
2018-02-21T01:39:27.053Z,49.13
2018-02-21T01:41:53.124Z,45.70
2018-02-21T01:44:19.128Z,44.60
2018-02-21T01:46:45.144Z,44.73
2018-02-21T01:49:11.193Z,44.50
2018-02-21T01:51:37.276Z,43.57
2018-02-21T01:54:03.287Z,48.70
2018-02-21T01:56:29.381Z,42.23
2018-02-21T01:58:55.476Z,43.27
2018-02-21T02:01:21.500Z,45.93
2018-02-21T02:03:47.517Z,44.40
2018-02-21T02:06:13.560Z,45.53
2018-02-21T02:08:39.646Z,43.13
2018-02-21T02:11:05.735Z,44.20
2018-02-21T02:13:31.774Z,40.00
2018-02-21T02:15:57.769Z,47.60
2018-02-21T02:18:23.798Z,48.10
2018-02-21T02:20:49.806Z,43.77
2018-02-21T02:23:15.826Z,47.00
2018-02-21T02:25:41.834Z,46.77
2018-02-21T02:28:07.865Z,45.37
2018-02-21T02:30:33.852Z,43.47
2018-02-21T02:32:59.867Z,47.07
2018-02-21T02:35:25.841Z,45.90
2018-02-21T02:37:51.842Z,47.97
2018-02-21T02:40:18.122Z,45.20
2018-02-21T02:42:43.903Z,46.07
2018-02-21T02:45:09.985Z,47.97
2018-02-21T02:47:36.053Z,46.23
2018-02-21T02:50:02.726Z,43.40
2018-02-21T02:52:28.795Z,43.10
2018-02-21T02:54:54.800Z,45.30
2018-02-21T02:57:20.821Z,42.53
2018-02-21T02:59:46.824Z,43.83
2018-02-21T03:02:12.943Z,43.40
2018-02-21T03:04:38.985Z,41.67
2018-02-21T03:07:05.037Z,45.13
2018-02-21T03:09:31.046Z,43.43
2018-02-21T03:11:57.237Z,46.27
2018-02-21T03:14:23.260Z,40.87
2018-02-21T03:16:49.282Z,47.73
2018-02-21T03:19:15.342Z,40.23
2018-02-21T03:21:41.380Z,46.43
2018-02-21T03:24:07.373Z,44.77
2018-02-21T03:26:33.391Z,44.33
2018-02-21T03:28:59.436Z,44.37
2018-02-21T03:31:25.495Z,44.43
2018-02-21T03:33:51.501Z,48.03
2018-02-21T03:36:17.545Z,39.60
2018-02-21T03:38:43.596Z,42.17
2018-02-21T03:41:09.677Z,47.47
2018-02-21T03:43:35.725Z,46.43
2018-02-21T03:46:01.765Z,45.60
2018-02-21T03:48:27.856Z,51.53
2018-02-21T03:50:53.926Z,44.13
2018-02-21T03:53:19.941Z,45.10
2018-02-21T03:55:45.909Z,44.73
2018-02-21T03:58:12.017Z,46.97
2018-02-21T04:00:38.094Z,47.50
2018-02-21T04:03:04.224Z,45.70
2018-02-21T04:05:30.241Z,45.80
2018-02-21T04:07:56.246Z,40.80
2018-02-21T04:10:22.344Z,42.33
2018-02-21T04:12:48.333Z,45.97
2018-02-21T04:15:14.486Z,44.80
2018-02-21T04:17:40.507Z,42.77
2018-02-21T04:20:06.737Z,45.93
2018-02-21T04:22:32.857Z,44.13
2018-02-21T04:24:58.901Z,49.37
2018-02-21T04:27:24.930Z,40.23
2018-02-21T04:29:50.944Z,41.97
2018-02-21T04:32:17.023Z,45.60
2018-02-21T04:34:43.091Z,47.97
2018-02-21T04:37:09.133Z,39.60
2018-02-21T04:39:35.197Z,39.30
2018-02-21T04:42:01.222Z,45.77
2018-02-21T04:44:27.250Z,43.57
2018-02-21T04:46:53.274Z,47.07
2018-02-21T04:49:19.329Z,41.60
2018-02-21T04:51:45.321Z,41.23
2018-02-21T04:54:12.016Z,44.07
2018-02-21T04:56:44.278Z,42.40
2018-02-21T04:59:17.212Z,43.60
2018-02-21T05:01:43.266Z,45.20
2018-02-21T05:04:09.291Z,43.50
2018-02-21T05:06:35.402Z,43.27
2018-02-21T05:09:01.490Z,43.90
2018-02-21T05:11:27.545Z,42.73
2018-02-21T05:13:53.561Z,41.67
2018-02-21T05:16:19.634Z,42.23
2018-02-21T05:18:45.672Z,39.37
2018-02-21T05:21:11.759Z,43.70
2018-02-21T05:23:37.793Z,39.37
2018-02-21T05:26:03.826Z,40.90
2018-02-21T05:28:29.893Z,42.80
2018-02-21T05:30:55.851Z,43.80
2018-02-21T05:33:21.902Z,37.37
2018-02-21T05:35:47.954Z,34.30
2018-02-21T05:38:14.045Z,40.60
2018-02-21T05:40:40.066Z,35.87
2018-02-21T05:43:06.115Z,42.87
2018-02-21T05:45:32.197Z,42.07
2018-02-21T05:47:58.221Z,38.93
2018-02-21T05:50:24.278Z,43.33
2018-02-21T05:52:50.307Z,39.03
2018-02-21T05:55:16.342Z,42.17
2018-02-21T05:57:42.345Z,40.53
2018-02-21T06:00:08.452Z,39.03
2018-02-21T06:02:34.573Z,40.07
2018-02-21T06:05:00.617Z,42.80
2018-02-21T06:07:26.644Z,38.73
2018-02-21T06:09:52.689Z,39.87
2018-02-21T06:12:18.703Z,38.60
2018-02-21T06:14:44.758Z,41.47
2018-02-21T06:17:10.744Z,44.60
2018-02-21T06:19:36.799Z,36.40
2018-02-21T06:22:02.942Z,39.77
2018-02-21T06:24:28.929Z,39.40
2018-02-21T06:26:54.981Z,35.87
2018-02-21T06:29:20.986Z,37.77
2018-02-21T06:31:47.006Z,35.07
2018-02-21T06:34:13.013Z,38.37
2018-02-21T06:36:39.058Z,38.50
2018-02-21T06:39:05.088Z,37.17
2018-02-21T06:41:31.134Z,40.30
2018-02-21T06:43:57.191Z,38.63
2018-02-21T06:46:23.201Z,43.67
2018-02-21T06:48:49.260Z,45.20
2018-02-21T06:51:15.277Z,47.23
2018-02-21T06:53:41.321Z,43.77
2018-02-21T06:56:07.483Z,40.77
2018-02-21T06:58:33.490Z,41.47
2018-02-21T07:00:59.609Z,39.50
2018-02-21T07:03:25.623Z,39.30
2018-02-21T07:05:51.624Z,39.20
2018-02-21T07:08:17.685Z,38.97
2018-02-21T07:10:43.701Z,39.97
2018-02-21T07:13:10.125Z,39.60
2018-02-21T07:15:36.189Z,38.67
2018-02-21T07:18:02.317Z,39.80
2018-02-21T07:20:28.334Z,42.50
2018-02-21T07:22:54.372Z,40.30
2018-02-21T07:25:20.437Z,43.17
2018-02-21T07:27:46.541Z,42.07
2018-02-21T07:30:12.568Z,43.90
2018-02-21T07:32:38.557Z,44.40
2018-02-21T07:35:04.569Z,46.77
2018-02-21T07:37:30.718Z,46.37
2018-02-21T07:39:56.781Z,50.93
2018-02-21T07:42:22.825Z,51.17
2018-02-21T07:44:48.880Z,45.20
2018-02-21T07:47:14.944Z,45.80
2018-02-21T07:49:40.978Z,45.17
2018-02-21T07:52:07.013Z,42.13
2018-02-21T07:54:33.041Z,47.03
2018-02-21T07:56:59.041Z,46.13
2018-02-21T07:59:25.142Z,44.10
2018-02-21T08:01:51.175Z,42.33
2018-02-21T08:04:17.219Z,43.67
2018-02-21T08:06:43.260Z,41.50
2018-02-21T08:09:09.233Z,41.90
2018-02-21T08:11:35.238Z,40.20
2018-02-21T08:14:01.246Z,40.63
2018-02-21T08:16:27.305Z,37.60
2018-02-21T08:18:53.382Z,40.57
2018-02-21T08:21:19.448Z,38.80
2018-02-21T08:23:45.487Z,40.93
2018-02-21T08:26:11.517Z,38.10
2018-02-21T08:28:37.517Z,43.10
2018-02-21T08:31:03.616Z,36.80
2018-02-21T08:33:29.624Z,37.57
2018-02-21T08:35:55.673Z,35.30
2018-02-21T08:38:21.682Z,33.30
2018-02-21T08:40:47.676Z,35.40
2018-02-21T08:43:13.726Z,36.70
2018-02-21T08:45:39.730Z,34.50
2018-02-21T08:48:05.834Z,36.67
2018-02-21T08:50:31.852Z,31.50
2018-02-21T08:52:57.802Z,29.80
2018-02-21T08:55:23.840Z,31.90
2018-02-21T08:57:49.912Z,28.37
2018-02-21T09:00:15.965Z,28.57
2018-02-21T09:02:41.981Z,27.87
2018-02-21T09:05:08.022Z,28.13
2018-02-21T09:07:34.035Z,28.07
2018-02-21T09:10:00.012Z,27.23
2018-02-21T09:12:26.048Z,27.73
2018-02-21T09:14:52.049Z,28.43
2018-02-21T09:17:18.118Z,28.23
2018-02-21T09:19:44.154Z,26.70
2018-02-21T09:22:10.198Z,27.40
2018-02-21T09:24:36.181Z,27.70
2018-02-21T09:27:02.293Z,23.40
2018-02-21T09:29:28.366Z,21.93
2018-02-21T09:31:54.367Z,20.83
2018-02-21T09:34:20.433Z,21.50
2018-02-21T09:36:46.468Z,18.40
2018-02-21T09:39:12.505Z,23.50
2018-02-21T09:41:38.485Z,21.90
2018-02-21T09:44:04.580Z,21.07
2018-02-21T09:46:30.606Z,21.93
2018-02-21T09:48:56.676Z,24.60
2018-02-21T09:51:22.678Z,21.13
2018-02-21T09:53:48.688Z,20.33
2018-02-21T09:56:14.725Z,20.93
2018-02-21T09:58:40.734Z,18.03
2018-02-21T10:01:06.704Z,19.53
2018-02-21T10:03:32.741Z,17.73
2018-02-21T10:05:58.747Z,15.27
2018-02-21T10:08:24.758Z,19.90
2018-02-21T10:10:50.888Z,16.97
2018-02-21T10:13:17.000Z,20.90
2018-02-21T10:15:43.028Z,15.93
2018-02-21T10:18:09.072Z,12.60
2018-02-21T10:20:35.128Z,20.10
2018-02-21T10:23:01.032Z,18.37
2018-02-21T10:25:27.062Z,17.73
2018-02-21T10:27:53.061Z,15.80
2018-02-21T10:30:19.041Z,18.60
2018-02-21T10:32:45.092Z,14.20
2018-02-21T10:35:11.145Z,16.50
2018-02-21T10:37:37.118Z,16.73
2018-02-21T10:40:03.485Z,17.37
2018-02-21T10:42:29.536Z,17.37
2018-02-21T10:44:55.612Z,16.50
2018-02-21T10:47:21.642Z,17.03
2018-02-21T10:49:47.718Z,17.90
2018-02-21T10:52:13.719Z,17.90
2018-02-21T10:54:39.741Z,11.83
2018-02-21T10:57:05.765Z,17.63
2018-02-21T10:59:31.835Z,14.07
2018-02-21T11:01:57.869Z,16.37
2018-02-21T11:04:23.874Z,15.13
2018-02-21T11:06:49.890Z,17.40
2018-02-21T11:09:15.899Z,16.57
2018-02-21T11:11:41.899Z,17.03
2018-02-21T11:14:07.920Z,17.13
2018-02-21T11:16:33.973Z,16.17
2018-02-21T11:18:59.953Z,16.20
2018-02-21T11:21:25.950Z,14.50
2018-02-21T11:23:52.013Z,14.90
2018-02-21T11:26:18.026Z,15.33
2018-02-21T11:28:44.023Z,15.80
2018-02-21T11:31:10.040Z,14.70
2018-02-21T11:33:36.037Z,17.00
2018-02-21T11:36:02.092Z,17.40
2018-02-21T11:38:28.094Z,17.13
2018-02-21T11:40:54.141Z,18.23
2018-02-21T11:43:20.134Z,15.27
2018-02-21T11:45:46.180Z,18.57
2018-02-21T11:48:12.201Z,16.73
2018-02-21T11:50:38.181Z,17.40
2018-02-21T11:53:04.198Z,18.57
2018-02-21T11:55:30.197Z,16.90
2018-02-21T11:57:56.234Z,18.20
2018-02-21T12:00:22.200Z,18.87
2018-02-21T12:02:48.257Z,15.90
2018-02-21T12:05:14.330Z,16.80
2018-02-21T12:07:40.358Z,18.60
2018-02-21T12:10:06.409Z,17.40
2018-02-21T12:12:32.440Z,17.07
2018-02-21T12:14:58.476Z,15.47
2018-02-21T12:17:24.517Z,18.03
2018-02-21T12:19:50.548Z,16.47
2018-02-21T12:22:16.580Z,16.43
2018-02-21T12:24:42.684Z,16.17
2018-02-21T12:27:08.739Z,13.57
2018-02-21T12:29:34.839Z,14.97
2018-02-21T12:32:12.666Z,16.03
2018-02-21T12:34:38.677Z,14.27
2018-02-21T12:37:04.705Z,15.10
2018-02-21T12:39:34.580Z,15.90
2018-02-21T12:42:00.728Z,18.83
2018-02-21T12:44:26.682Z,14.63
2018-02-21T12:46:52.682Z,13.53
2018-02-21T12:49:18.744Z,16.47
2018-02-21T12:51:44.797Z,17.57
2018-02-21T12:54:10.862Z,16.10
2018-02-21T12:56:36.921Z,16.70
2018-02-21T12:59:02.990Z,16.00
2018-02-21T13:01:29.014Z,16.33
2018-02-21T13:03:55.037Z,16.23
2018-02-21T13:06:21.082Z,15.00
2018-02-21T13:08:47.076Z,14.63
2018-02-21T13:11:13.096Z,15.23
2018-02-21T13:13:39.114Z,15.60
2018-02-21T13:16:05.168Z,18.33
2018-02-21T13:18:31.185Z,16.80
2018-02-21T13:20:57.190Z,14.60
2018-02-21T13:23:23.230Z,15.13
2018-02-21T13:25:49.223Z,15.30
2018-02-21T13:28:15.265Z,17.30
2018-02-21T13:30:41.339Z,17.60
2018-02-21T13:33:07.354Z,16.30
2018-02-21T13:35:33.329Z,14.33
2018-02-21T13:37:59.618Z,15.47
2018-02-21T13:40:25.641Z,15.93
2018-02-21T13:42:51.628Z,17.73
2018-02-21T13:45:17.629Z,17.87
2018-02-21T13:47:43.729Z,17.23
2018-02-21T13:50:09.713Z,14.87
2018-02-21T13:52:35.765Z,16.13
2018-02-21T13:55:01.765Z,16.17
2018-02-21T13:57:27.722Z,15.13
2018-02-21T13:59:53.750Z,17.33
2018-02-21T14:02:19.721Z,17.93
2018-02-21T14:04:45.956Z,15.67
2018-02-21T14:07:11.968Z,16.70
2018-02-21T14:09:38.025Z,15.00
2018-02-21T14:12:04.041Z,15.30
2018-02-21T14:14:30.102Z,15.63
2018-02-21T14:16:56.154Z,15.77
2018-02-21T14:19:22.146Z,14.90
2018-02-21T14:21:48.165Z,14.47
2018-02-21T14:24:14.308Z,15.83
2018-02-21T14:26:40.372Z,15.07
2018-02-21T14:29:06.517Z,17.97
2018-02-21T14:31:32.580Z,15.80
2018-02-21T14:33:58.618Z,16.53
2018-02-21T14:36:24.604Z,18.60
2018-02-21T14:38:50.625Z,25.27
2018-02-21T14:41:16.593Z,26.53
2018-02-21T14:43:42.643Z,23.90
2018-02-21T14:46:08.665Z,21.43
2018-02-21T14:48:34.673Z,24.80
2018-02-21T14:51:00.721Z,28.13
2018-02-21T14:53:26.799Z,21.67
2018-02-21T14:55:53.118Z,19.37
2018-02-21T14:58:19.151Z,19.40
2018-02-21T15:00:45.206Z,14.17
2018-02-21T15:03:11.221Z,17.20
2018-02-21T15:05:37.270Z,19.97
2018-02-21T15:08:03.269Z,16.00
2018-02-21T15:10:29.320Z,18.77
2018-02-21T15:12:55.373Z,23.90
2018-02-21T15:15:21.516Z,25.90
2018-02-21T15:17:47.566Z,25.00
2018-02-21T15:20:13.572Z,28.90
2018-02-21T15:22:39.936Z,26.33
2018-02-21T15:25:05.905Z,24.53
2018-02-21T15:27:31.983Z,24.70
2018-02-21T15:29:58.037Z,28.70
2018-02-21T15:32:24.445Z,33.23
2018-02-21T15:34:50.954Z,28.47
2018-02-21T15:37:17.070Z,26.30
2018-02-21T15:39:43.118Z,32.10
2018-02-21T15:42:09.128Z,34.30
2018-02-21T15:44:35.117Z,29.87
2018-02-21T15:47:01.214Z,32.20
2018-02-21T15:49:27.216Z,33.47
2018-02-21T15:51:53.222Z,31.37
2018-02-21T15:54:19.285Z,32.77
2018-02-21T15:56:45.319Z,27.03
2018-02-21T15:59:11.422Z,31.40
2018-02-21T16:01:37.444Z,33.20
2018-02-21T16:04:03.504Z,27.63
2018-02-21T16:06:29.553Z,29.77
2018-02-21T16:08:55.701Z,33.07
2018-02-21T16:11:21.714Z,29.97
2018-02-21T16:13:47.796Z,31.63
2018-02-21T16:16:13.863Z,29.57
2018-02-21T16:18:39.958Z,24.57
2018-02-21T16:21:05.943Z,25.60
2018-02-21T16:23:31.962Z,33.50
2018-02-21T16:25:58.017Z,33.03
2018-02-21T16:28:24.035Z,31.70
2018-02-21T16:30:50.105Z,30.50
2018-02-21T16:36:22.500Z,35.10
2018-02-21T16:38:48.525Z,30.30
2018-02-21T16:41:14.576Z,30.20
2018-02-21T16:43:40.670Z,25.40
2018-02-21T16:46:06.788Z,27.90
2018-02-21T16:48:32.870Z,29.67
2018-02-21T16:50:58.993Z,29.70
2018-02-21T16:53:25.646Z,29.73
2018-02-21T16:55:51.721Z,29.43
2018-02-21T16:58:18.028Z,28.23
2018-02-21T17:00:44.158Z,23.80
2018-02-21T17:03:10.186Z,26.23
2018-02-21T17:05:36.262Z,27.07
2018-02-21T17:08:02.332Z,23.90
2018-02-21T17:10:28.386Z,25.57
2018-02-21T17:12:54.511Z,21.83
2018-02-21T17:15:45.403Z,24.87
2018-02-21T17:18:13.147Z,27.13
2018-02-21T17:20:49.920Z,22.70
2018-02-21T17:23:15.994Z,19.03
2018-02-21T17:25:41.994Z,25.03
2018-02-21T17:28:08.086Z,22.07
2018-02-21T17:30:49.043Z,24.27
2018-02-21T17:33:15.783Z,23.50
2018-02-21T17:35:41.999Z,23.07
2018-02-21T17:38:08.158Z,30.07
2018-02-21T17:40:34.245Z,22.10
2018-02-21T17:43:00.264Z,24.30
2018-02-21T17:45:26.282Z,19.13
2018-02-21T17:47:52.338Z,21.00
2018-02-21T17:50:18.407Z,19.87
2018-02-21T17:52:44.470Z,24.60
2018-02-21T17:55:10.561Z,24.50
2018-02-21T17:57:37.216Z,23.93
2018-02-21T18:00:04.372Z,25.57
2018-02-21T18:02:30.475Z,25.00
2018-02-21T18:04:56.626Z,22.90
2018-02-21T18:07:22.678Z,21.53
2018-02-21T18:09:48.788Z,22.33
2018-02-21T18:12:15.041Z,22.50
2018-02-21T18:14:41.168Z,23.40
2018-02-21T18:17:07.261Z,20.10
2018-02-21T18:19:33.298Z,23.63
2018-02-21T18:21:59.389Z,25.07
2018-02-21T18:24:25.567Z,25.07
2018-02-21T18:26:51.699Z,19.03
2018-02-21T18:29:17.680Z,20.77
2018-02-21T18:31:43.720Z,17.77
2018-02-21T18:34:09.823Z,18.10
2018-02-21T18:36:35.889Z,15.80
2018-02-21T18:39:01.990Z,17.73
2018-02-21T18:41:28.321Z,18.10
2018-02-21T18:43:54.344Z,16.10
2018-02-21T18:46:20.433Z,16.03
2018-02-21T18:48:46.507Z,14.50
2018-02-21T18:51:12.523Z,14.13
2018-02-21T18:53:38.552Z,14.83
2018-02-21T18:56:04.634Z,13.77
2018-02-21T18:58:30.622Z,15.80
2018-02-21T19:00:56.729Z,12.83
2018-02-21T19:03:23.005Z,15.20
2018-02-21T19:05:49.046Z,13.97
2018-02-21T19:08:15.047Z,14.80
2018-02-21T19:10:41.126Z,13.70
2018-02-21T19:13:07.261Z,12.17
2018-02-21T19:15:33.418Z,12.90
2018-02-21T19:17:59.433Z,13.03
2018-02-21T19:20:25.476Z,13.33
2018-02-21T19:22:51.526Z,14.77
2018-02-21T19:25:17.750Z,12.70
2018-02-21T19:27:43.790Z,12.90
2018-02-21T19:30:09.948Z,15.77
2018-02-21T19:32:35.963Z,15.60
2018-02-21T19:35:02.265Z,13.97
2018-02-21T19:37:28.340Z,16.50
2018-02-21T19:39:54.442Z,17.00
2018-02-21T19:42:20.596Z,16.27
2018-02-21T19:44:46.646Z,16.40
2018-02-21T19:47:12.700Z,15.30
2018-02-21T19:49:39.002Z,13.07
2018-02-21T19:52:05.020Z,13.43
2018-02-21T19:54:31.095Z,16.27
2018-02-21T19:56:57.177Z,16.33
2018-02-21T19:59:23.318Z,15.50
2018-02-21T20:01:49.380Z,15.83
2018-02-21T20:04:15.447Z,16.77
2018-02-21T20:06:41.676Z,16.97
2018-02-21T20:09:07.715Z,15.37
2018-02-21T20:11:33.889Z,15.17
2018-02-21T20:13:59.986Z,16.17
2018-02-21T20:16:26.064Z,16.37
2018-02-21T20:18:52.232Z,17.00
2018-02-21T20:21:28.217Z,16.13
2018-02-21T20:23:54.267Z,16.13
2018-02-21T20:26:20.340Z,16.33
2018-02-21T20:28:46.477Z,16.67
2018-02-21T20:31:12.537Z,18.23
2018-02-21T20:33:38.618Z,16.03
2018-02-21T20:36:04.666Z,16.30
2018-02-21T20:38:33.743Z,15.60
2018-02-21T20:41:00.317Z,15.63
2018-02-21T20:43:26.341Z,16.97
2018-02-21T20:45:52.432Z,15.73
2018-02-21T20:48:18.486Z,17.10
2018-02-21T20:50:44.547Z,15.40
2018-02-21T20:53:10.674Z,16.83
2018-02-21T20:55:36.739Z,16.07
2018-02-21T20:58:02.855Z,14.43
2018-02-21T21:00:29.429Z,17.90
2018-02-21T21:02:55.494Z,16.60
2018-02-21T21:05:21.542Z,13.73
2018-02-21T21:07:47.643Z,16.03
2018-02-21T21:10:13.652Z,15.73
2018-02-21T21:12:39.725Z,16.47
2018-02-21T21:15:05.793Z,15.00
2018-02-21T21:17:31.842Z,14.90
2018-02-21T21:19:57.824Z,14.90
2018-02-21T21:22:23.926Z,16.23
2018-02-21T21:24:49.971Z,14.20
2018-02-21T21:27:16.018Z,14.67
2018-02-21T21:29:43.034Z,17.30
2018-02-21T21:32:09.074Z,14.83
2018-02-21T21:34:35.107Z,15.60
2018-02-21T21:37:01.202Z,16.37
2018-02-21T21:39:27.245Z,15.80
2018-02-21T21:42:00.389Z,14.90
2018-02-21T21:44:26.423Z,17.00
2018-02-21T21:46:52.473Z,16.33
2018-02-21T21:49:18.542Z,15.47
2018-02-21T21:51:44.608Z,15.73
2018-02-21T21:54:10.674Z,16.40
2018-02-21T21:56:36.706Z,16.50
2018-02-21T21:59:02.809Z,15.50
2018-02-21T22:01:28.866Z,15.33
2018-02-21T22:03:54.899Z,15.60
2018-02-21T22:06:20.969Z,15.20
2018-02-21T22:08:47.009Z,15.33
2018-02-21T22:11:13.047Z,14.10
2018-02-21T22:13:39.114Z,15.97
2018-02-21T22:16:05.181Z,16.50
2018-02-21T22:18:31.169Z,13.20
2018-02-21T22:20:57.185Z,15.57
2018-02-21T22:23:23.209Z,14.03
2018-02-21T22:25:49.248Z,17.53
2018-02-21T22:28:15.273Z,15.83
2018-02-21T22:30:41.362Z,16.03
2018-02-21T22:33:07.388Z,14.37
2018-02-21T22:35:33.365Z,15.23
2018-02-21T22:37:59.465Z,16.00
2018-02-21T22:40:25.483Z,17.10
2018-02-21T22:42:51.540Z,16.77
2018-02-21T22:45:17.606Z,15.40
2018-02-21T22:50:16.541Z,18.90
2018-02-21T22:52:43.262Z,18.77
2018-02-21T22:55:09.288Z,20.07
2018-02-21T22:57:35.408Z,13.57
2018-02-21T23:00:01.731Z,22.50
2018-02-21T23:02:27.786Z,16.00
2018-02-21T23:04:53.807Z,19.30
2018-02-21T23:07:19.840Z,20.40
2018-02-21T23:09:45.870Z,19.00
2018-02-21T23:12:11.916Z,22.27
2018-02-21T23:14:37.928Z,17.97
2018-02-21T23:17:04.017Z,21.93
2018-02-21T23:19:30.036Z,17.53
2018-02-21T23:21:56.025Z,17.67
2018-02-21T23:24:22.085Z,14.80
2018-02-21T23:26:48.078Z,17.43
2018-02-21T23:29:14.130Z,18.30
2018-02-21T23:31:40.138Z,18.23
2018-02-21T23:34:06.148Z,18.00
2018-02-21T23:36:32.149Z,15.17
2018-02-21T23:38:58.146Z,15.37
2018-02-21T23:41:24.201Z,15.10
2018-02-21T23:43:50.216Z,15.67
2018-02-21T23:46:16.230Z,17.47
2018-02-21T23:48:42.322Z,21.13
2018-02-21T23:51:08.406Z,18.87
2018-02-21T23:53:34.430Z,17.10
2018-02-21T23:56:00.505Z,16.73
2018-02-21T23:58:26.557Z,18.40
